Latest Weather Observations for Roxby Downs

IDS60801

Issued at 10:05 pm CDT Sunday 23 November 2014 (issued every 30 minutes, with the page automatically refreshed every 10 minutes)

About weather observations | Map of weather stations | Latest weather observations for SA | Other Formats
Station Details ID: 016096 Name: OLYMPIC DAM AERODROME Lat: -30.48 Lon: 136.88 Height: 98.5 m
Data from the previous 72 hours. | See also: Recent months at Roxby Downs
Date/Time
CDT
Temp
°C
App
Temp
°C
Dew
Point
Rel
Hum
%
Delta-T
°C
Wind Press
QNH
hPa
Press
MSL
hPa
Rain
since 9 am
mm
Dir
 
Spd
km/h
Gust
km/h
Spd
kts
Gust
kts
23/10:00pm 31.6 30.4 12.9 32 11.2 ENE 11 15 6 8 1008.0 1007.5 0.0
23/09:30pm 31.7 30.0 12.5 31 11.4 E 13 17 7 9 1007.9 1007.4 0.0
23/09:00pm 31.4 30.8 13.6 33 10.8 ENE 9 13 5 7 1008.2 1007.7 0.0
23/08:30pm 31.3 29.9 14.4 35 10.4 SE 15 20 8 11 1007.9 1007.4 0.0
23/08:00pm 31.8 32.0 15.7 37 10.1 SSE 9 15 5 8 1008.6 1008.1 0.0
23/07:30pm 34.1 31.1 10.7 24 13.7 E 17 26 9 14 1007.3 1006.8 0.0
23/07:00pm 34.4 29.6 10.3 23 14.0 ESE 26 35 14 19 1006.2 1005.7 0.0
23/06:30pm 35.1 30.6 10.2 22 14.5 ESE 24 32 13 17 1005.8 1005.3 0.0
23/06:00pm 35.7 32.0 10.0 21 15.0 ESE 20 30 11 16 1005.6 1005.1 0.0
23/05:30pm 37.4 33.5 10.7 20 15.9 ESE 22 30 12 16 1005.7 1005.2 0.0
23/05:00pm 36.4 32.6 9.8 20 15.5 E 20 28 11 15 1006.1 1005.6 0.0
23/04:30pm 36.2 32.0 9.7 20 15.4 SE 22 28 12 15 1006.3 1005.8 0.0
23/04:00pm 36.7 31.2 9.3 19 15.9 SE 28 43 15 23 1006.7 1006.2 0.0
23/03:30pm 36.9 31.1 9.5 19 15.9 ESE 30 41 16 22 1007.4 1006.9 0.0
23/03:00pm 36.2 30.6 8.9 19 15.7 SSE 28 39 15 21 1008.0 1007.5 0.0
23/02:30pm 36.0 31.0 9.5 20 15.4 S 26 35 14 19 1008.3 1007.8 0.0
23/02:00pm 34.3 29.7 9.5 22 14.2 SE 24 30 13 16 1008.3 1007.8 0.0
23/01:30pm 34.0 30.2 9.9 23 13.9 ESE 20 26 11 14 1009.1 1008.6 0.0
23/01:00pm 33.6 29.3 10.9 25 13.3 S 24 32 13 17 1009.7 1009.2 0.0
23/12:30pm 32.0 28.3 12.8 31 11.5 SW 24 35 13 19 1010.0 1009.5 0.0
23/12:24pm 31.1 26.7 12.9 32 10.9 SW 28 37 15 20 1010.1 1009.6 0.0
23/12:00pm 29.3 30.1 14.7 41 8.9 NNW 4 11 2 6 1009.4 1008.9 0.0
23/11:30am 28.1 26.2 15.1 45 7.9 ENE 19 26 10 14 1008.8 1008.3 0.0
23/11:00am 25.6 22.3 15.0 52 6.4 E 26 35 14 19 1008.0 1007.5 0.0
23/10:30am 24.3 22.3 13.8 52 6.2 ESE 17 20 9 11 1009.4 1008.9 0.0
23/10:00am 23.3 21.1 14.3 57 5.3 ESE 19 24 10 13 1009.5 1009.0 0.0
23/09:30am 22.6 18.5 13.7 57 5.2 E 28 41 15 22 1010.2 1009.7 0.0
23/09:02am 19.9 15.1 14.0 69 3.4 E 32 50 17 27 1010.1 1009.6 0.0
23/09:00am 19.9 15.5 14.0 69 3.4 E 30 44 16 24 1010.7 1010.2 1.0
23/08:59am 20.0 15.9 13.9 68 3.5 E 28 41 15 22 1011.1 1010.7 0.8
23/08:30am 21.1 20.1 13.3 61 4.5 NE 11 19 6 10 1011.9 1011.5 0.6
23/08:00am 21.7 18.7 12.0 54 5.5 WSW 19 30 10 16 1011.9 1011.5 0.6
23/07:30am 21.9 17.5 11.6 52 5.8 S 26 32 14 17 1010.2 1009.7 0.6
23/07:00am 21.3 18.2 12.2 56 5.1 ESE 20 26 11 14 1010.0 1009.5 0.6
23/06:30am 21.0 19.7 12.4 58 4.9 E 11 19 6 10 1010.3 1009.8 0.6
23/06:00am 20.6 18.2 12.6 60 4.5 SSE 17 24 9 13 1009.6 1009.1 0.6
23/05:30am 21.9 18.1 9.8 46 6.6 S 20 26 11 14 1009.3 1008.8 0.4
23/05:00am 22.0 17.5 8.5 42 7.2 S 22 30 12 16 1008.6 1008.1 0.4
23/04:30am 22.4 17.0 8.1 40 7.6 S 26 37 14 20 1008.3 1007.8 0.4
23/04:00am 22.6 16.4 8.0 39 7.7 S 30 39 16 21 1007.9 1007.4 0.4
23/03:30am 23.0 17.6 7.9 38 8.0 S 26 35 14 19 1007.9 1007.4 0.4
23/03:00am 23.6 18.2 8.1 37 8.3 S 26 33 14 18 1008.1 1007.6 0.4
23/02:30am 24.4 18.3 8.4 36 8.6 S 30 43 16 23 1008.2 1007.7 0.4
23/02:00am 24.8 18.4 8.7 36 8.7 SSE 32 44 17 24 1008.6 1008.1 0.4
23/01:30am 25.7 18.5 7.8 32 9.6 SSE 35 50 19 27 1008.9 1008.4 0.4
23/01:00am 26.6 20.3 9.0 33 9.7 SSE 32 41 17 22 1009.1 1008.6 0.4
23/12:30am 27.6 21.9 11.2 36 9.4 SSE 32 43 17 23 1009.5 1009.0 0.4
23/12:00am 29.0 24.6 14.0 39 9.0 SSE 30 41 16 22 1009.3 1008.8 0.4
 
Date/Time
CDT
Temp
°C
App
Temp
°C
Dew
Point
Rel
Hum
%
Delta-T
°C
Wind Press
QNH
hPa
Press
MSL
hPa
Rain
since 9 am
mm
Dir
 
Spd
km/h
Gust
km/h
Spd
kts
Gust
kts
22/11:30pm 29.9 25.1 14.0 37 9.6 SE 32 46 17 25 1009.5 1009.0 0.4
22/11:00pm 31.6 26.8 12.9 32 11.2 ESE 30 44 16 24 1009.9 1009.4 0.4
22/10:30pm 32.8 26.9 11.3 27 12.6 SSE 33 44 18 24 1008.0 1007.5 0.4
22/10:00pm 35.0 30.3 12.0 25 13.8 S 28 41 15 22 1007.0 1006.5 0.4
22/09:30pm 35.9 32.8 11.5 23 14.6 S 19 28 10 15 1006.5 1006.0 0.4
22/09:00pm 36.1 33.4 11.7 23 14.6 S 17 22 9 12 1005.9 1005.4 0.4
22/08:30pm 36.7 33.6 11.5 22 15.1 SSW 19 26 10 14 1005.1 1004.7 0.4
22/08:00pm 37.7 33.3 11.6 21 15.7 SSW 26 35 14 19 1004.5 1004.1 0.4
22/07:30pm 39.2 34.5 10.5 18 17.1 SSW 26 39 14 21 1004.0 1003.6 0.4
22/07:00pm 40.6 34.7 8.9 15 18.5 SW 30 41 16 22 1003.4 1003.0 0.4
22/06:30pm 41.8 37.7 8.8 14 19.4 WSW 20 28 11 15 1003.1 1002.7 0.2
22/06:00pm 39.0 39.4 14.7 23 15.4 NNE 6 15 3 8 1003.1 1002.7 0.2
22/05:39pm 35.7 33.3 16.4 31 12.3 N 24 33 13 18 1003.3 1002.9 0.2
22/05:30pm 40.9 36.0 10.1 16 18.4 NNW 26 33 14 18 1003.0 1002.6 0.0
22/05:00pm 42.5 37.0 5.9 11 20.7 WNW 24 32 13 17 1002.8 1002.4 0.0
22/04:30pm 43.1 35.4 3.4 9 21.8 W 33 57 18 31 1002.4 1002.0 0.0
22/04:00pm 44.4 38.3 2.7 8 22.7 WNW 24 33 13 18 1002.4 1002.0 0.0
22/03:50pm 43.4 36.4 2.0 8 22.2 NW 28 46 15 25 1002.5 1002.1 0.0
22/03:30pm 43.6 37.3 3.8 9 22.0 NW 26 39 14 21 1002.6 1002.2 0.0
22/03:00pm 44.2 37.2 4.2 9 22.3 W 30 44 16 24 1003.1 1002.7 0.0
22/02:30pm 43.9 37.3 4.0 9 22.2 WNW 28 50 15 27 1003.6 1003.2 0.0
22/02:01pm 43.5 37.1 5.2 10 21.5 WNW 28 46 15 25 1004.0 1003.6 0.0
22/02:00pm 43.2 36.4 5.0 10 21.4 WNW 30 46 16 25 1004.0 1003.6 0.0
22/01:30pm 42.1 35.8 5.6 11 20.6 NW 28 41 15 22 1004.4 1004.0 0.0
22/01:04pm 41.8 35.7 6.6 12 20.0 NW 28 48 15 26 1004.8 1004.4 0.0
22/01:00pm 41.1 35.1 7.2 13 19.4 NW 28 44 15 24 1004.8 1004.4 0.0
22/12:30pm 40.5 35.7 8.8 15 18.6 NNW 24 37 13 20 1005.1 1004.7 0.0
22/12:00pm 38.9 33.7 10.3 18 17.0 N 28 46 15 25 1005.5 1005.0 0.0
22/11:30am 38.5 33.2 10.0 18 16.8 N 28 43 15 23 1005.9 1005.4 0.0
22/11:00am 36.8 32.5 10.9 21 15.4 N 24 32 13 17 1006.4 1005.9 0.0
22/10:30am 36.0 31.7 10.9 22 14.9 NE 24 37 13 20 1006.2 1005.7 0.0
22/10:00am 34.2 28.7 10.7 24 13.7 NE 30 39 16 21 1006.3 1005.8 0.0
22/09:30am 33.3 28.2 10.6 25 13.2 NE 28 39 15 21 1006.6 1006.1 0.0
22/09:00am 32.6 28.3 10.6 26 12.8 E 24 35 13 19 1006.9 1006.4 0.0
22/08:30am 31.5 27.0 10.2 27 12.2 E 24 30 13 16 1007.3 1006.8 0.0
22/08:00am 30.0 26.4 10.5 30 11.2 ESE 20 28 11 15 1007.3 1006.8 0.0
22/07:30am 28.3 25.3 10.5 33 10.1 SE 17 22 9 12 1007.3 1006.8 0.0
22/07:00am 27.0 24.9 11.1 37 9.1 SSE 13 20 7 11 1007.5 1007.0 0.0
22/06:30am 25.7 22.1 11.8 42 8.0 S 22 32 12 17 1007.3 1006.8 0.0
22/06:00am 25.2 23.7 9.1 36 8.8 E 7 9 4 5 1006.2 1005.7 0.0
22/05:30am 25.5 24.1 8.9 35 9.1 ENE 6 7 3 4 1006.0 1005.5 0.0
22/05:00am 27.0 25.1 8.9 32 9.9 ENE 9 15 5 8 1005.8 1005.3 0.0
22/04:30am 27.0 24.5 8.4 31 10.2 E 11 15 6 8 1005.7 1005.2 0.0
22/04:00am 27.1 23.9 8.5 31 10.1 SSE 15 19 8 10 1005.8 1005.3 0.0
22/03:30am 27.4 24.9 8.3 30 10.4 E 11 15 6 8 1005.3 1004.9 0.0
22/03:00am 28.0 24.8 8.3 29 10.8 E 15 19 8 10 1005.8 1005.3 0.0
22/02:30am 28.2 24.9 8.0 28 11.0 ENE 15 20 8 11 1006.1 1005.6 0.0
22/02:00am 28.2 25.3 8.0 28 11.0 E 13 19 7 10 1006.7 1006.2 0.0
22/01:30am 28.3 25.4 8.1 28 11.0 E 13 17 7 9 1007.0 1006.5 0.0
22/01:00am 28.3 25.4 8.1 28 11.0 ENE 13 17 7 9 1007.2 1006.7 0.0
22/12:30am 28.5 25.6 8.2 28 11.1 E 13 17 7 9 1007.7 1007.2 0.0
22/12:00am 29.1 25.8 8.2 27 11.5 E 15 20 8 11 1007.9 1007.4 0.0
 
Date/Time
CDT
Temp
°C
App
Temp
°C
Dew
Point
Rel
Hum
%
Delta-T
°C
Wind Press
QNH
hPa
Press
MSL
hPa
Rain
since 9 am
mm
Dir
 
Spd
km/h
Gust
km/h
Spd
kts
Gust
kts
21/11:30pm 29.3 25.7 8.4 27 11.5 E 17 20 9 11 1008.2 1007.7 0.0
21/11:00pm 29.8 26.2 8.2 26 11.9 E 17 20 9 11 1008.3 1007.8 0.0
21/10:30pm 29.9 27.3 9.4 28 11.5 E 13 19 7 10 1008.6 1008.1 0.0
21/10:00pm 30.5 27.5 9.4 27 11.9 E 15 20 8 11 1008.6 1008.1 0.0
21/09:30pm 30.9 28.4 9.7 27 12.0 E 13 19 7 10 1008.5 1008.0 0.0
21/09:00pm 31.4 28.9 9.6 26 12.4 E 13 19 7 10 1008.4 1007.9 0.0
21/08:30pm 32.2 30.1 9.7 25 12.9 E 11 19 6 10 1008.2 1007.7 0.0
21/08:00pm 33.4 33.1 11.3 26 13.0 W 4 7 2 4 1008.0 1007.5 0.0
21/07:30pm 34.1 32.8 11.3 25 13.5 NW 9 13 5 7 1008.0 1007.5 0.0
21/07:00pm 34.7 33.0 11.2 24 13.9 NW 11 17 6 9 1007.9 1007.4 0.0
21/06:30pm 35.2 34.2 10.9 23 14.3 WNW 7 11 4 6 1007.9 1007.4 0.0
21/06:00pm 35.2 33.4 9.6 21 14.8 S 9 15 5 8 1007.9 1007.4 0.0
21/05:30pm 34.7 31.9 9.9 22 14.4 NW 15 24 8 13 1008.2 1007.7 0.0
21/05:00pm 34.9 32.9 8.6 20 14.9 W 9 17 5 9 1008.3 1007.8 0.0
21/04:30pm 33.8 31.2 7.7 20 14.6 NNE 11 15 6 8 1008.7 1008.2 0.0
21/04:00pm 34.4 31.4 7.5 19 15.0 WSW 13 24 7 13 1009.2 1008.7 0.0
21/03:30pm 33.3 30.2 7.3 20 14.4 W 13 20 7 11 1009.7 1009.2 0.0
21/03:00pm 33.3 30.2 7.3 20 14.4 S 13 22 7 12 1010.1 1009.6 0.0
21/02:30pm 32.1 28.9 7.0 21 13.7 W 13 20 7 11 1010.8 1010.4 0.0
21/02:00pm 32.5 29.4 7.4 21 13.8 W 13 20 7 11 1011.2 1010.8 0.0
21/01:30pm 31.3 29.1 7.7 23 13.0 N 9 17 5 9 1011.8 1011.4 0.0
21/01:00pm 30.7 28.6 8.4 25 12.4 ESE 9 15 5 8 1012.3 1011.9 0.0
21/12:30pm 29.1 27.4 9.8 30 10.9 NW 9 15 5 8 1012.7 1012.3 0.0
21/12:00pm 28.6 27.2 10.8 33 10.2 SSW 9 19 5 10 1013.1 1012.7 0.0
21/11:30am 28.0 26.0 11.5 35 9.5 SE 13 20 7 11 1013.3 1012.9 0.0
21/11:00am 26.5 24.5 11.4 39 8.6 SSE 13 19 7 10 1013.5 1013.1 0.0
21/10:30am 25.5 23.8 12.4 44 7.6 S 13 20 7 11 1013.7 1013.3 0.0
21/10:00am 24.3 23.2 13.2 50 6.5 ENE 11 17 6 9 1013.7 1013.3 0.0
21/09:30am 23.9 23.0 13.7 53 6.0 E 11 19 6 10 1013.8 1013.4 0.0
21/09:00am 23.3 22.1 14.0 56 5.5 ESE 13 19 7 10 1013.9 1013.5 0.0
21/08:30am 21.8 20.7 14.2 62 4.5 ESE 13 17 7 9 1013.6 1013.2 0.0
21/08:00am 20.8 19.4 14.5 67 3.7 SE 15 20 8 11 1013.4 1013.0 0.0
21/07:30am 20.3 18.9 14.4 69 3.4 SE 15 19 8 10 1013.4 1013.0 0.0
21/07:00am 19.5 19.0 13.7 69 3.3 SE 9 13 5 7 1013.0 1012.6 0.0
21/06:30am 18.8 18.6 13.0 69 3.3 SSE 6 11 3 6 1012.4 1012.0 0.0
21/06:00am 19.3 17.8 13.0 67 3.6 S 13 15 7 8 1011.9 1011.5 0.0
21/05:30am 19.7 18.6 13.2 66 3.7 S 11 15 6 8 1012.1 1011.7 0.0
21/05:00am 20.1 18.6 13.1 64 4.0 S 13 15 7 8 1012.1 1011.7 0.0
21/04:30am 20.5 19.0 13.2 63 4.2 S 13 17 7 9 1011.7 1011.3 0.0
21/04:00am 20.9 19.5 13.4 62 4.3 S 13 17 7 9 1011.7 1011.3 0.0
21/03:30am 21.3 19.2 13.5 61 4.5 S 17 22 9 12 1011.6 1011.2 0.0
21/03:00am 21.6 19.1 13.5 60 4.7 S 19 30 10 16 1011.5 1011.1 0.0
21/02:30am 22.0 19.0 13.6 59 4.9 S 22 32 12 17 1011.6 1011.2 0.0
21/02:00am 22.4 19.4 13.7 58 5.1 S 22 32 12 17 1011.8 1011.4 0.0
21/01:30am 22.9 20.3 13.9 57 5.3 SSW 20 28 11 15 1011.9 1011.5 0.0
21/01:00am 23.3 21.3 14.0 56 5.5 S 17 24 9 13 1011.9 1011.5 0.0
21/12:30am 23.8 21.2 13.9 54 5.8 S 20 26 11 14 1011.8 1011.4 0.0
21/12:00am 24.4 21.5 13.9 52 6.2 SSW 22 32 12 17 1011.7 1011.3 0.0
 
Date/Time
CDT
Temp
°C
App
Temp
°C
Dew
Point
Rel
Hum
%
Delta-T
°C
Wind Press
QNH
hPa
Press
MSL
hPa
Rain
since 9 am
mm
Dir
 
Spd
km/h
Gust
km/h
Spd
kts
Gust
kts
20/11:30pm 25.1 21.4 13.9 49 6.6 SSW 26 35 14 19 1011.8 1011.4 0.0
20/11:00pm 25.8 22.5 14.0 48 7.0 SSW 24 35 13 19 1011.7 1011.3 0.0
20/10:30pm 27.0 24.5 13.4 43 8.1 SSW 19 26 10 14 1011.4 1011.0 0.0

Other Formats:

Comma delimited format used in spreadsheet applications
http://www.bom.gov.au/fwo/IDS60801/IDS60801.95658.axf

JavaScript Object Notation format (JSON) in row-major order
http://www.bom.gov.au/fwo/IDS60801/IDS60801.95658.json